createdAt,value
2022-12-11T00:00:26.127Z,100199.63
2022-12-11T00:02:29.807Z,100193.97
2022-12-11T00:04:34.143Z,100201.00
2022-12-11T00:06:36.941Z,100208.59
2022-12-11T00:08:40.203Z,100208.44
2022-12-11T00:10:48.624Z,100200.06
2022-12-11T00:12:51.424Z,100199.25
2022-12-11T00:14:54.226Z,100199.25
2022-12-11T00:16:57.081Z,100202.06
2022-12-11T00:19:00.123Z,100202.84
2022-12-11T00:21:05.369Z,100209.66
2022-12-11T00:23:08.135Z,100200.22
2022-12-11T00:25:11.320Z,100201.00
2022-12-11T00:27:14.451Z,100205.09
2022-12-11T00:29:17.193Z,100206.59
2022-12-11T00:31:21.123Z,100206.50
2022-12-11T00:33:23.957Z,100208.38
2022-12-11T00:35:26.808Z,100206.84
2022-12-11T00:37:31.017Z,100214.94
2022-12-11T00:39:34.076Z,100210.91
2022-12-11T00:41:37.099Z,100209.66
2022-12-11T00:43:40.051Z,100203.72
2022-12-11T00:45:44.487Z,100202.13
2022-12-11T00:47:47.350Z,100199.50
2022-12-11T00:49:50.397Z,100209.19
2022-12-11T00:51:53.511Z,100204.00
2022-12-11T00:53:57.650Z,100194.78
2022-12-11T00:56:00.692Z,100197.25
2022-12-11T00:58:04.074Z,100198.13
2022-12-11T01:00:08.319Z,100196.63
2022-12-11T01:02:11.150Z,100196.63
2022-12-11T01:04:14.035Z,100194.00
2022-12-11T01:06:18.748Z,100197.41
2022-12-11T01:08:22.032Z,100202.28
2022-12-11T01:10:25.522Z,100194.56
2022-12-11T01:12:28.543Z,100200.44
2022-12-11T01:14:31.309Z,100198.59
2022-12-11T01:16:34.286Z,100187.53
2022-12-11T01:18:37.725Z,100193.50
2022-12-11T01:20:42.508Z,100187.59
2022-12-11T01:22:45.275Z,100195.91
2022-12-11T01:24:48.332Z,100194.78
2022-12-11T01:26:52.531Z,100198.44
2022-12-11T01:28:55.298Z,100193.50
2022-12-11T01:30:58.091Z,100197.09
2022-12-11T01:33:01.175Z,100184.03
2022-12-11T01:35:05.018Z,100197.72
2022-12-11T01:37:07.780Z,100210.09
2022-12-11T01:39:10.517Z,100197.66
2022-12-11T01:41:13.613Z,100186.47
2022-12-11T01:43:17.820Z,100194.44
2022-12-11T01:45:33.723Z,100196.22
2022-12-11T01:47:36.580Z,100197.72
2022-12-11T01:49:41.162Z,100193.78
2022-12-11T01:51:50.435Z,100189.78
2022-12-11T01:53:56.963Z,100198.44
2022-12-11T01:56:00.202Z,100184.38
2022-12-11T01:58:03.819Z,100169.53
2022-12-11T02:00:10.187Z,100174.50
2022-12-11T02:02:20.385Z,100201.38
2022-12-11T02:04:24.656Z,100210.75
2022-12-11T02:06:32.701Z,100217.94
2022-12-11T02:08:35.646Z,100216.41
2022-12-11T02:10:49.978Z,100226.56
2022-12-11T02:12:58.856Z,100228.03
2022-12-11T02:15:13.464Z,100223.84
2022-12-11T02:17:20.604Z,100217.88
2022-12-11T02:19:39.670Z,100229.13
2022-12-11T02:21:49.002Z,100231.66
2022-12-11T02:24:08.132Z,100221.28
2022-12-11T02:26:23.099Z,100224.00
2022-12-11T02:28:33.117Z,100216.50
2022-12-11T02:30:38.258Z,100224.25
2022-12-11T02:32:48.775Z,100218.28
2022-12-11T02:35:00.362Z,100212.28
2022-12-11T02:37:07.255Z,100205.41
2022-12-11T02:39:13.564Z,100210.28
2022-12-11T02:41:16.438Z,100215.25
2022-12-11T02:43:21.123Z,100210.75
2022-12-11T02:45:27.071Z,100202.94
2022-12-11T02:47:33.170Z,100208.03
2022-12-11T02:49:36.988Z,100204.63
2022-12-11T02:51:42.012Z,100209.00
2022-12-11T02:53:46.060Z,100208.59
2022-12-11T02:55:53.404Z,100203.66
2022-12-11T02:58:04.219Z,100197.75
2022-12-11T03:00:09.686Z,100192.56
2022-12-11T03:02:16.465Z,100198.22
2022-12-11T03:04:19.440Z,100205.81
2022-12-11T03:06:27.641Z,100203.09
2022-12-11T03:08:30.670Z,100203.56
2022-12-11T03:10:33.742Z,100202.06
2022-12-11T03:12:39.802Z,100199.13
2022-12-11T03:14:44.346Z,100200.22
2022-12-11T03:16:57.501Z,100202.00
2022-12-11T03:19:11.762Z,100213.47
2022-12-11T03:21:21.147Z,100205.50
2022-12-11T03:23:29.509Z,100213.00
2022-12-11T03:25:37.445Z,100204.53
2022-12-11T03:27:45.999Z,100199.59
2022-12-11T03:29:54.959Z,100207.19
2022-12-11T03:32:03.855Z,100202.38
2022-12-11T03:34:13.987Z,100210.38
2022-12-11T03:36:21.552Z,100202.78
2022-12-11T03:38:29.263Z,100197.81
2022-12-11T03:40:35.601Z,100207.25
2022-12-11T03:42:40.508Z,100220.34
2022-12-11T03:44:45.314Z,100220.03
2022-12-11T03:46:49.344Z,100224.66
2022-12-11T03:48:54.692Z,100227.84
2022-12-11T03:51:00.478Z,100220.03
2022-12-11T03:53:05.810Z,100215.72
2022-12-11T03:55:10.299Z,100212.53
2022-12-11T03:57:16.972Z,100212.38
2022-12-11T03:59:19.727Z,100220.97
2022-12-11T04:01:22.530Z,100216.84
2022-12-11T04:03:25.392Z,100212.44
2022-12-11T04:05:28.195Z,100213.53
2022-12-11T04:07:32.535Z,100211.25
2022-12-11T04:09:36.236Z,100208.84
2022-12-11T04:11:39.514Z,100213.72
2022-12-11T04:13:42.594Z,100203.59
2022-12-11T04:15:44.428Z,100207.88
2022-12-11T04:18:04.590Z,100208.03
2022-12-11T04:20:25.501Z,100209.63
2022-12-11T04:22:45.760Z,100210.44
2022-12-11T04:24:50.396Z,100205.47
2022-12-11T04:26:53.226Z,100202.75
2022-12-11T04:28:56.034Z,100206.28
2022-12-11T04:30:58.882Z,100207.09
2022-12-11T04:33:01.771Z,100210.44
2022-12-11T04:35:05.486Z,100203.81
2022-12-11T04:37:08.281Z,100204.69
2022-12-11T04:39:11.132Z,100205.47
2022-12-11T04:41:17.151Z,100201.09
2022-12-11T04:43:19.992Z,100203.59
2022-12-11T04:45:22.802Z,100205.47
2022-12-11T04:47:25.691Z,100209.63
2022-12-11T04:49:28.601Z,100202.03
2022-12-11T04:51:31.431Z,100203.59
2022-12-11T04:53:34.746Z,100199.09
2022-12-11T04:55:37.572Z,100198.63
2022-12-11T04:57:42.026Z,100191.41
2022-12-11T04:59:44.915Z,100197.81
2022-12-11T05:01:47.793Z,100195.09
2022-12-11T05:03:50.729Z,100189.19
2022-12-11T05:05:54.907Z,100192.31
2022-12-11T05:07:58.207Z,100195.09
2022-12-11T05:10:00.937Z,100186.41
2022-12-11T05:12:04.160Z,100186.63
2022-12-11T05:14:08.394Z,100190.13
2022-12-11T05:16:13.971Z,100183.91
2022-12-11T05:18:16.862Z,100188.25
2022-12-11T05:20:19.734Z,100189.66
2022-12-11T05:22:22.534Z,100187.91
2022-12-11T05:24:25.412Z,100180.09
2022-12-11T05:26:28.282Z,100176.28
2022-12-11T05:28:33.824Z,100184.72
2022-12-11T05:30:38.117Z,100179.53
2022-12-11T05:32:40.932Z,100182.25
2022-12-11T05:34:43.926Z,100190.31
2022-12-11T05:36:47.261Z,100180.88
2022-12-11T05:38:50.231Z,100185.84
2022-12-11T05:40:59.959Z,100178.72
2022-12-11T05:43:02.802Z,100180.09
2022-12-11T05:45:06.576Z,100184.91
2022-12-11T05:47:10.967Z,100183.91
2022-12-11T05:49:13.966Z,100181.34
2022-12-11T05:51:17.146Z,100177.31
2022-12-11T05:53:19.937Z,100185.44
2022-12-11T05:55:22.701Z,100186.47
2022-12-11T05:57:25.827Z,100175.16
2022-12-11T05:59:28.655Z,100176.59
2022-12-11T06:01:34.340Z,100179.94
2022-12-11T06:03:39.027Z,100176.91
2022-12-11T06:05:43.244Z,100181.22
2022-12-11T06:07:46.136Z,100177.94
2022-12-11T06:09:48.989Z,100179.72
2022-12-11T06:11:51.789Z,100175.63
2022-12-11T06:13:54.717Z,100176.91
2022-12-11T06:16:02.424Z,100174.75
2022-12-11T06:18:05.418Z,100170.66
2022-12-11T06:20:10.372Z,100170.75
2022-12-11T06:22:13.060Z,100164.41
2022-12-11T06:24:15.946Z,100161.38
2022-12-11T06:26:20.030Z,100162.94
2022-12-11T06:28:22.886Z,100163.84
2022-12-11T06:30:38.612Z,100162.78
2022-12-11T06:32:42.377Z,100150.69
2022-12-11T06:34:45.200Z,100156.81
2022-12-11T06:36:49.302Z,100164.00
2022-12-11T06:38:52.593Z,100155.56
2022-12-11T06:40:56.917Z,100158.22
2022-12-11T06:42:59.668Z,100160.50
2022-12-11T06:45:03.923Z,100156.66
2022-12-11T06:47:06.839Z,100163.78
2022-12-11T06:49:09.595Z,100156.97
2022-12-11T06:51:14.383Z,100155.72
2022-12-11T06:53:18.850Z,100153.00
2022-12-11T06:55:22.031Z,100153.72
2022-12-11T06:57:24.988Z,100149.09
2022-12-11T06:59:27.849Z,100155.97
2022-12-11T07:01:30.798Z,100162.31
2022-12-11T07:03:33.555Z,100159.91
2022-12-11T07:05:36.497Z,100156.81
2022-12-11T07:07:39.527Z,100155.28
2022-12-11T07:09:43.760Z,100159.47
2022-12-11T07:11:46.691Z,100157.84
2022-12-11T07:13:49.900Z,100155.56
2022-12-11T07:15:52.717Z,100160.75
2022-12-11T07:17:55.510Z,100163.38
2022-12-11T07:19:58.361Z,100164.56
2022-12-11T07:22:01.114Z,100170.44
2022-12-11T07:24:04.786Z,100172.06
2022-12-11T07:26:10.703Z,100170.59
2022-12-11T07:28:16.651Z,100175.84
2022-12-11T07:30:19.795Z,100175.69
2022-12-11T07:32:22.778Z,100168.81
2022-12-11T07:34:25.629Z,100173.94
2022-12-11T07:36:30.092Z,100178.84
2022-12-11T07:38:33.043Z,100181.72
2022-12-11T07:40:35.966Z,100180.38
2022-12-11T07:42:45.841Z,100182.13
2022-12-11T07:44:49.126Z,100174.38
2022-12-11T07:46:52.070Z,100177.66
2022-12-11T07:48:55.203Z,100176.69
2022-12-11T07:51:08.063Z,100177.66
2022-12-11T07:53:11.010Z,100181.97
2022-12-11T07:55:13.901Z,100179.75
2022-12-11T07:57:16.748Z,100191.97
2022-12-11T07:59:21.043Z,100189.34
2022-12-11T08:01:26.382Z,100183.84
2022-12-11T08:03:29.199Z,100187.47
2022-12-11T08:05:32.009Z,100182.72
2022-12-11T08:07:35.836Z,100182.88
2022-12-11T08:09:38.726Z,100181.66
2022-12-11T08:11:41.727Z,100178.09
2022-12-11T08:13:44.555Z,100177.56
2022-12-11T08:15:48.878Z,100179.09
2022-12-11T08:17:51.708Z,100183.91
2022-12-11T08:19:54.677Z,100184.84
2022-12-11T08:21:57.496Z,100184.94
2022-12-11T08:24:00.301Z,100177.19
2022-12-11T08:26:04.094Z,100175.63
2022-12-11T08:28:06.875Z,100177.63
2022-12-11T08:30:10.464Z,100175.84
2022-12-11T08:32:16.717Z,100169.88
2022-12-11T08:34:20.679Z,100178.00
2022-12-11T08:36:24.389Z,100166.50
2022-12-11T08:38:27.195Z,100177.47
2022-12-11T08:40:30.049Z,100180.81
2022-12-11T08:42:33.943Z,100188.72
2022-12-11T08:44:36.753Z,100187.59
2022-12-11T08:46:39.772Z,100193.19
2022-12-11T08:48:44.990Z,100188.56
2022-12-11T08:50:47.831Z,100193.44
2022-12-11T08:52:50.967Z,100187.44
2022-12-11T08:54:53.841Z,100178.91
2022-12-11T08:56:58.285Z,100189.38
2022-12-11T08:59:02.054Z,100190.16
2022-12-11T09:01:07.804Z,100185.38
2022-12-11T09:03:12.976Z,100187.75
2022-12-11T09:05:17.626Z,100173.88
2022-12-11T09:07:20.556Z,100174.97
2022-12-11T09:09:23.341Z,100176.03
2022-12-11T09:11:28.125Z,100174.78
2022-12-11T09:13:30.895Z,100173.94
2022-12-11T09:15:33.853Z,100167.16
2022-12-11T09:17:36.717Z,100175.13
2022-12-11T09:19:39.467Z,100177.19
2022-12-11T09:21:44.705Z,100181.34
2022-12-11T09:23:48.320Z,100170.81
2022-12-11T09:25:51.141Z,100183.59
2022-12-11T09:27:54.027Z,100178.03
2022-12-11T09:29:56.942Z,100178.03
2022-12-11T09:32:00.071Z,100176.63
2022-12-11T09:34:05.314Z,100181.03
2022-12-11T09:36:08.895Z,100178.66
2022-12-11T09:38:13.201Z,100179.38
2022-12-11T09:40:16.264Z,100180.41
2022-12-11T09:42:28.004Z,100183.81
2022-12-11T09:44:39.139Z,100179.00
2022-12-11T09:46:43.468Z,100171.59
2022-12-11T09:48:48.856Z,100167.41
2022-12-11T09:50:54.442Z,100168.06
2022-12-11T09:53:06.787Z,100161.53
2022-12-11T09:55:17.435Z,100163.50
2022-12-11T09:57:31.073Z,100163.25
2022-12-11T09:59:43.996Z,100160.19
2022-12-11T10:01:53.173Z,100159.94
2022-12-11T10:04:16.984Z,100158.97
2022-12-11T10:06:26.407Z,100156.81
2022-12-11T10:08:36.462Z,100159.19
2022-12-11T10:10:44.561Z,100151.88
2022-12-11T10:12:54.492Z,100152.09
2022-12-11T10:15:15.911Z,100150.34
2022-12-11T10:17:23.252Z,100152.91
2022-12-11T10:19:28.927Z,100158.19
2022-12-11T10:21:39.883Z,100158.91
2022-12-11T10:23:47.080Z,100159.47
2022-12-11T10:25:55.313Z,100154.25
2022-12-11T10:27:58.507Z,100148.53
2022-12-11T10:30:09.108Z,100144.13
2022-12-11T10:32:22.023Z,100141.13
2022-12-11T10:34:34.056Z,100138.06
2022-12-11T10:36:40.295Z,100142.97
2022-12-11T10:38:45.142Z,100138.75
2022-12-11T10:40:50.987Z,100132.72
2022-12-11T10:42:55.921Z,100127.91
2022-12-11T10:45:00.460Z,100126.03
2022-12-11T10:47:07.006Z,100125.13
2022-12-11T10:49:23.038Z,100121.47
2022-12-11T10:51:34.063Z,100115.63
2022-12-11T10:53:37.256Z,100105.81
2022-12-11T10:55:46.083Z,100106.38
2022-12-11T10:57:59.296Z,100113.09
2022-12-11T11:00:04.446Z,100108.25
2022-12-11T11:02:17.158Z,100105.22
2022-12-11T11:04:31.132Z,100105.34
2022-12-11T11:06:34.860Z,100102.78
2022-12-11T11:08:41.470Z,100094.44
2022-12-11T11:10:54.936Z,100101.13
2022-12-11T11:13:03.535Z,100101.00
2022-12-11T11:15:12.625Z,100094.75
2022-12-11T11:17:18.223Z,100084.97
2022-12-11T11:19:24.843Z,100082.03
2022-12-11T11:21:30.003Z,100090.19
2022-12-11T11:23:33.026Z,100089.06
2022-12-11T11:25:35.830Z,100082.50
2022-12-11T11:27:44.922Z,100079.69
2022-12-11T11:29:53.344Z,100086.16
2022-12-11T11:31:56.565Z,100081.78
2022-12-11T11:34:03.151Z,100075.31
2022-12-11T11:36:08.860Z,100063.31
2022-12-11T11:38:18.946Z,100074.72
2022-12-11T11:40:28.040Z,100072.81
2022-12-11T11:42:42.382Z,100073.03
2022-12-11T11:44:53.709Z,100066.94
2022-12-11T11:47:01.610Z,100070.47
2022-12-11T11:49:11.628Z,100072.09
2022-12-11T11:51:17.150Z,100069.25
2022-12-11T11:53:25.383Z,100074.50
2022-12-11T11:55:39.152Z,100067.38
2022-12-11T11:57:46.923Z,100062.38
2022-12-11T11:59:55.505Z,100064.75
2022-12-11T12:01:59.583Z,100061.28
2022-12-11T12:04:05.201Z,100059.13
2022-12-11T12:06:19.510Z,100073.63
2022-12-11T12:08:37.354Z,100069.75
2022-12-11T12:10:48.791Z,100065.28
2022-12-11T12:12:58.309Z,100065.88
2022-12-11T12:15:18.244Z,100073.31
2022-12-11T12:17:27.938Z,100068.16
2022-12-11T12:19:43.912Z,100070.53
2022-12-11T12:21:50.280Z,100069.09
2022-12-11T12:24:06.487Z,100071.13
2022-12-11T12:26:15.876Z,100074.66
2022-12-11T12:28:28.853Z,100066.25
2022-12-11T12:30:43.834Z,100069.69
2022-12-11T12:32:58.508Z,100070.56
2022-12-11T12:35:32.299Z,100059.25
2022-12-11T12:37:45.649Z,100075.31
2022-12-11T12:39:57.692Z,100061.41
2022-12-11T12:42:08.293Z,100066.47
2022-12-11T12:44:15.635Z,100068.44
2022-12-11T12:46:29.795Z,100060.06
2022-12-11T12:48:34.073Z,100056.63
2022-12-11T12:50:41.508Z,100056.72
2022-12-11T12:52:45.254Z,100052.94
2022-12-11T12:55:06.174Z,100045.91
2022-12-11T12:57:09.471Z,100048.41
2022-12-11T12:59:23.771Z,100043.34
2022-12-11T13:01:30.413Z,100046.72
2022-12-11T13:03:38.161Z,100039.22
2022-12-11T13:05:44.210Z,100040.47
2022-12-11T13:07:54.405Z,100029.22
2022-12-11T13:10:04.664Z,100032.03
2022-12-11T13:12:15.488Z,100026.50
2022-12-11T13:14:31.821Z,100026.31
2022-12-11T13:16:40.494Z,100023.50
2022-12-11T13:18:45.053Z,100029.47
2022-12-11T13:20:50.968Z,100030.94
2022-12-11T13:23:11.630Z,100026.66
2022-12-11T13:25:30.094Z,100024.50
2022-12-11T13:27:39.051Z,100034.06
2022-12-11T13:29:43.449Z,100038.66
2022-12-11T13:31:58.263Z,100044.97
2022-12-11T13:34:10.252Z,100039.16
2022-12-11T13:36:30.085Z,100038.63
2022-12-11T13:38:33.162Z,100038.97
2022-12-11T13:40:40.526Z,100040.78
2022-12-11T13:42:50.887Z,100042.06
2022-12-11T13:44:53.837Z,100044.63
2022-12-11T13:47:01.318Z,100050.78
2022-12-11T13:49:06.815Z,100056.25
2022-12-11T13:51:17.038Z,100055.22
2022-12-11T13:53:21.204Z,100053.47
2022-12-11T13:55:27.276Z,100050.91
2022-12-11T13:57:30.074Z,100053.59
2022-12-11T13:59:36.386Z,100050.25
2022-12-11T14:01:40.434Z,100051.66
2022-12-11T14:03:51.697Z,100052.81
2022-12-11T14:05:55.189Z,100062.72
2022-12-11T14:08:00.583Z,100063.91
2022-12-11T14:10:09.445Z,100064.81
2022-12-11T14:12:17.603Z,100069.13
2022-12-11T14:14:23.381Z,100067.78
2022-12-11T14:16:27.300Z,100061.44
2022-12-11T14:18:32.633Z,100071.41
2022-12-11T14:20:36.862Z,100066.69
2022-12-11T14:22:39.720Z,100067.13
2022-12-11T14:24:50.449Z,100070.47
2022-12-11T14:26:54.571Z,100072.19
2022-12-11T14:28:57.546Z,100073.56
2022-12-11T14:31:03.729Z,100073.09
2022-12-11T14:33:07.509Z,100076.25
2022-12-11T14:35:26.365Z,100081.38
2022-12-11T14:37:31.272Z,100077.63
2022-12-11T14:39:39.209Z,100082.19
2022-12-11T14:41:47.898Z,100087.63
2022-12-11T14:43:54.562Z,100082.31
2022-12-11T14:46:02.093Z,100090.13
2022-12-11T14:48:09.648Z,100081.84
2022-12-11T14:50:20.481Z,100086.75
2022-12-11T14:52:26.735Z,100093.72
2022-12-11T14:54:34.689Z,100093.91
2022-12-11T14:56:38.329Z,100092.22
2022-12-11T14:58:46.096Z,100095.34
2022-12-11T15:00:58.216Z,100091.41
2022-12-11T15:03:03.972Z,100093.25
2022-12-11T15:05:17.836Z,100094.91
2022-12-11T15:07:22.569Z,100086.75
2022-12-11T15:09:28.481Z,100095.25
2022-12-11T15:11:33.531Z,100097.00
2022-12-11T15:13:38.472Z,100096.88
2022-12-11T15:15:45.697Z,100094.56
2022-12-11T15:17:52.897Z,100094.69
2022-12-11T15:20:02.199Z,100092.28
2022-12-11T15:22:07.567Z,100099.22
2022-12-11T15:24:24.511Z,100108.88
2022-12-11T15:26:36.791Z,100100.38
2022-12-11T15:28:40.246Z,100100.38
2022-12-11T15:30:43.094Z,100101.19
2022-12-11T15:32:46.181Z,100102.00
2022-12-11T15:34:51.425Z,100106.44
2022-12-11T15:36:54.285Z,100102.13
2022-12-11T15:38:57.250Z,100101.59
2022-12-11T15:41:00.887Z,100098.38
2022-12-11T15:43:05.114Z,100106.66
2022-12-11T15:45:10.525Z,100094.56
2022-12-11T15:47:15.362Z,100103.88
2022-12-11T15:49:19.022Z,100103.75
2022-12-11T15:51:22.860Z,100104.63
2022-12-11T15:53:25.802Z,100110.66
2022-12-11T15:55:34.219Z,100108.88
2022-12-11T15:57:37.817Z,100112.16
2022-12-11T15:59:42.051Z,100108.63
2022-12-11T16:01:45.420Z,100113.69
2022-12-11T16:03:50.293Z,100108.56
2022-12-11T16:05:54.104Z,100111.44
2022-12-11T16:07:59.433Z,100106.50
2022-12-11T16:10:02.614Z,100107.09
2022-12-11T16:12:05.864Z,100112.09
2022-12-11T16:14:08.720Z,100116.31
2022-12-11T16:16:12.911Z,100110.41
2022-12-11T16:18:18.376Z,100108.72
2022-12-11T16:20:21.678Z,100110.47
2022-12-11T16:22:24.623Z,100109.66
2022-12-11T16:24:27.717Z,100105.34
2022-12-11T16:26:30.542Z,100103.44
2022-12-11T16:28:33.908Z,100109.66
2022-12-11T16:30:38.501Z,100107.09
2022-12-11T16:32:42.736Z,100109.66
2022-12-11T16:34:45.648Z,100101.84
2022-12-11T16:36:48.451Z,100095.69
2022-12-11T16:38:53.763Z,100096.72
2022-12-11T16:41:03.397Z,100094.16
2022-12-11T16:43:06.650Z,100091.69
2022-12-11T16:45:13.799Z,100084.88
2022-12-11T16:47:16.792Z,100083.09
2022-12-11T16:49:21.302Z,100081.44
2022-12-11T16:51:24.608Z,100080.63
2022-12-11T16:53:27.661Z,100094.31
2022-12-11T16:55:31.301Z,100094.91
2022-12-11T16:57:34.580Z,100100.94
2022-12-11T16:59:37.882Z,100103.69
2022-12-11T17:01:40.979Z,100095.16
2022-12-11T17:03:44.712Z,100103.69
2022-12-11T17:05:48.911Z,100101.13
2022-12-11T17:07:51.875Z,100093.34
2022-12-11T17:09:54.721Z,100089.06
2022-12-11T17:11:57.886Z,100094.25
2022-12-11T17:14:01.537Z,100091.75
2022-12-11T17:16:06.284Z,100089.31
2022-12-11T17:18:09.354Z,100091.88
2022-12-11T17:20:12.516Z,100085.97
2022-12-11T17:22:16.729Z,100081.78
2022-12-11T17:24:19.670Z,100091.88
2022-12-11T17:26:25.154Z,100089.31
2022-12-11T17:28:28.154Z,100084.19
2022-12-11T17:30:31.009Z,100090.25
2022-12-11T17:32:33.841Z,100087.28
2022-12-11T17:34:38.541Z,100081.97
2022-12-11T17:36:41.520Z,100087.41
2022-12-11T17:38:46.589Z,100084.66
2022-12-11T17:40:49.512Z,100086.34
2022-12-11T17:42:53.106Z,100090.66
2022-12-11T17:44:55.917Z,100092.47
2022-12-11T17:46:58.868Z,100095.91
2022-12-11T17:49:03.183Z,100095.09
2022-12-11T17:51:08.200Z,100097.81
2022-12-11T17:53:11.169Z,100094.97
2022-12-11T17:55:15.776Z,100093.19
2022-12-11T17:57:18.862Z,100084.00
2022-12-11T17:59:21.671Z,100094.31
2022-12-11T18:01:24.515Z,100088.13
2022-12-11T18:03:28.811Z,100090.03
2022-12-11T18:05:31.819Z,100088.66
2022-12-11T18:07:37.100Z,100083.09
2022-12-11T18:09:40.647Z,100083.94
2022-12-11T18:11:44.784Z,100082.97
2022-12-11T18:13:48.809Z,100081.31
2022-12-11T18:16:00.531Z,100083.94
2022-12-11T18:18:03.425Z,100088.09
2022-12-11T18:20:06.842Z,100084.66
2022-12-11T18:22:09.757Z,100088.22
2022-12-11T18:24:13.028Z,100089.91
2022-12-11T18:26:15.871Z,100087.50
2022-12-11T18:28:20.238Z,100094.56
2022-12-11T18:30:24.073Z,100091.03
2022-12-11T18:32:26.917Z,100087.50
2022-12-11T18:34:29.920Z,100092.41
2022-12-11T18:36:33.900Z,100076.97
2022-12-11T18:38:36.695Z,100084.72
2022-12-11T18:40:39.495Z,100088.59
2022-12-11T18:42:42.398Z,100096.41
2022-12-11T18:44:46.575Z,100102.13
2022-12-11T18:46:49.579Z,100097.81
2022-12-11T18:48:52.447Z,100094.44
2022-12-11T18:50:55.254Z,100095.44
2022-12-11T18:52:58.090Z,100088.59
2022-12-11T18:55:01.028Z,100094.44
2022-12-11T18:57:04.271Z,100097.72
2022-12-11T18:59:07.084Z,100095.25
2022-12-11T19:01:13.835Z,100097.22
2022-12-11T19:03:19.941Z,100089.19
2022-12-11T19:05:22.748Z,100091.75
2022-12-11T19:07:25.598Z,100101.13
2022-12-11T19:09:28.402Z,100098.63
2022-12-11T19:11:32.968Z,100103.75
2022-12-11T19:13:36.375Z,100095.81
2022-12-11T19:15:40.202Z,100101.81
2022-12-11T19:17:44.347Z,100100.81
2022-12-11T19:19:48.304Z,100094.91
2022-12-11T19:21:51.645Z,100091.69
2022-12-11T19:23:55.000Z,100090.81
2022-12-11T19:25:57.844Z,100087.28
2022-12-11T19:28:00.720Z,100096.47
2022-12-11T19:30:03.917Z,100092.28
2022-12-11T19:32:06.938Z,100094.66
2022-12-11T19:34:11.217Z,100099.78
2022-12-11T19:36:16.598Z,100096.13
2022-12-11T19:38:19.514Z,100092.88
2022-12-11T19:40:26.075Z,100091.50
2022-12-11T19:42:29.979Z,100082.34
2022-12-11T19:44:33.038Z,100093.19
2022-12-11T19:46:37.118Z,100087.03
2022-12-11T19:48:41.485Z,100090.31
2022-12-11T19:50:45.705Z,100080.78
2022-12-11T19:52:48.629Z,100086.69
2022-12-11T19:54:51.423Z,100086.97
2022-12-11T19:56:54.492Z,100089.53
2022-12-11T19:58:57.819Z,100088.72
2022-12-11T20:01:01.192Z,100089.47
2022-12-11T20:03:04.490Z,100090.25
2022-12-11T20:05:08.757Z,100086.16
2022-12-11T20:07:13.644Z,100081.91
2022-12-11T20:09:16.948Z,100086.16
2022-12-11T20:11:19.814Z,100084.84
2022-12-11T20:13:22.883Z,100092.66
2022-12-11T20:15:26.547Z,100092.59
2022-12-11T20:17:29.358Z,100090.56
2022-12-11T20:19:32.425Z,100088.00
2022-12-11T20:21:35.178Z,100092.41
2022-12-11T20:23:39.347Z,100089.88
2022-12-11T20:25:42.120Z,100092.28
2022-12-11T20:27:45.127Z,100096.53
2022-12-11T20:29:47.929Z,100092.88
2022-12-11T20:31:51.046Z,100093.66
2022-12-11T20:33:56.586Z,100097.88
2022-12-11T20:35:59.420Z,100100.66
2022-12-11T20:38:02.200Z,100100.50
2022-12-11T20:40:07.874Z,100097.00
2022-12-11T20:42:11.033Z,100097.94
2022-12-11T20:44:13.866Z,100090.56
2022-12-11T20:46:20.243Z,100094.06
2022-12-11T20:48:23.399Z,100091.41
2022-12-11T20:50:26.276Z,100094.06
2022-12-11T20:52:29.080Z,100085.50
2022-12-11T20:54:31.945Z,100091.28
2022-12-11T20:56:36.289Z,100081.78
2022-12-11T20:58:39.391Z,100086.91
2022-12-11T21:00:43.785Z,100088.53
2022-12-11T21:02:46.710Z,100095.25
2022-12-11T21:04:49.526Z,100090.13
2022-12-11T21:06:55.436Z,100098.78
2022-12-11T21:08:59.606Z,100096.72
2022-12-11T21:11:02.529Z,100094.97
2022-12-11T21:13:06.776Z,100094.16
2022-12-11T21:15:11.133Z,100098.69
2022-12-11T21:17:14.261Z,100087.69
2022-12-11T21:19:17.407Z,100092.75
2022-12-11T21:21:20.342Z,100094.38
2022-12-11T21:23:23.287Z,100095.38
2022-12-11T21:25:26.217Z,100097.13
2022-12-11T21:27:29.294Z,100102.31
2022-12-11T21:29:33.587Z,100096.34
2022-12-11T21:31:36.537Z,100095.69
2022-12-11T21:33:39.989Z,100093.91
2022-12-11T21:35:43.245Z,100097.28
2022-12-11T21:37:46.095Z,100097.41
2022-12-11T21:39:50.424Z,100103.44
2022-12-11T21:41:53.341Z,100100.66
2022-12-11T21:46:23.940Z,100113.31
2022-12-11T21:48:26.789Z,100107.38
2022-12-11T21:50:29.584Z,100108.94
2022-12-11T21:52:32.465Z,100110.25
2022-12-11T21:54:35.911Z,100109.91
2022-12-11T21:56:38.756Z,100113.41
2022-12-11T21:58:43.137Z,100111.19
2022-12-11T22:00:46.563Z,100120.06
2022-12-11T22:02:51.387Z,100123.34
2022-12-11T22:04:54.368Z,100117.63
2022-12-11T22:06:57.913Z,100117.63
2022-12-11T22:09:00.840Z,100119.13
2022-12-11T22:11:03.791Z,100117.50
2022-12-11T22:13:07.402Z,100112.50
2022-12-11T22:15:10.939Z,100114.13
2022-12-11T22:17:13.979Z,100118.88
2022-12-11T22:19:18.111Z,100117.06
2022-12-11T22:21:21.233Z,100121.16
2022-12-11T22:23:24.927Z,100116.50
2022-12-11T22:25:27.841Z,100123.50
2022-12-11T22:27:30.670Z,100124.38
2022-12-11T22:29:34.792Z,100127.00
2022-12-11T22:31:37.745Z,100125.72
2022-12-11T22:33:41.078Z,100126.88
2022-12-11T22:35:45.297Z,100116.06
2022-12-11T22:37:48.502Z,100124.09
2022-12-11T22:39:51.458Z,100124.16
2022-12-11T22:41:54.312Z,100126.16
2022-12-11T22:43:58.024Z,100124.69
2022-12-11T22:46:00.880Z,100127.69
2022-12-11T22:48:04.102Z,100122.66
2022-12-11T22:50:07.933Z,100131.19
2022-12-11T22:52:12.108Z,100122.84
2022-12-11T22:54:14.927Z,100122.13
2022-12-11T22:56:18.069Z,100129.94
2022-12-11T22:58:22.055Z,100123.94
2022-12-11T23:00:25.297Z,100118.88
2022-12-11T23:02:28.352Z,100121.38
2022-12-11T23:04:31.269Z,100119.78
2022-12-11T23:06:34.095Z,100116.38
2022-12-11T23:08:38.321Z,100118.66
2022-12-11T23:10:41.828Z,100111.66
2022-12-11T23:12:44.713Z,100118.03
2022-12-11T23:14:47.586Z,100126.44
2022-12-11T23:16:51.326Z,100124.25
2022-12-11T23:18:54.758Z,100130.09
2022-12-11T23:20:57.445Z,100127.03
2022-12-11T23:23:00.277Z,100126.53
2022-12-11T23:25:05.320Z,100128.63
2022-12-11T23:27:08.354Z,100124.53
2022-12-11T23:29:11.230Z,100132.44
2022-12-11T23:31:14.338Z,100122.47
2022-12-11T23:33:17.242Z,100127.38
2022-12-11T23:35:20.069Z,100134.16
2022-12-11T23:37:22.873Z,100129.28
2022-12-11T23:39:25.753Z,100127.47
2022-12-11T23:41:30.092Z,100124.97
2022-12-11T23:43:34.432Z,100129.19
2022-12-11T23:45:37.258Z,100139.28
2022-12-11T23:47:40.039Z,100128.91
2022-12-11T23:49:42.768Z,100134.47
2022-12-11T23:51:45.627Z,100140.69